createdAt,value
2023-02-23T00:01:24.409Z,-10.84
2023-02-23T00:03:51.902Z,-10.87
2023-02-23T00:06:19.483Z,-10.88
2023-02-23T00:08:48.018Z,-10.89
2023-02-23T00:11:16.000Z,-10.89
2023-02-23T00:13:46.330Z,-10.92
2023-02-23T00:16:16.770Z,-10.96
2023-02-23T00:18:48.405Z,-10.97
2023-02-23T00:21:16.426Z,-10.98
2023-02-23T00:23:47.907Z,-10.95
2023-02-23T00:26:14.890Z,-10.93
2023-02-23T00:28:43.714Z,-10.97
2023-02-23T00:31:11.840Z,-11.08
2023-02-23T00:33:41.150Z,-11.13
2023-02-23T00:36:13.641Z,-11.15
2023-02-23T00:38:41.736Z,-11.19
2023-02-23T00:41:12.463Z,-11.23
2023-02-23T00:43:48.030Z,-11.19
2023-02-23T00:46:19.091Z,-11.17
2023-02-23T00:48:51.307Z,-11.13
2023-02-23T00:51:19.504Z,-11.10
2023-02-23T00:53:46.583Z,-11.12
2023-02-23T00:56:14.378Z,-11.13
2023-02-23T00:58:41.525Z,-11.20
2023-02-23T01:01:09.865Z,-11.24
2023-02-23T01:03:37.128Z,-11.21
2023-02-23T01:06:07.093Z,-11.28
2023-02-23T01:08:34.761Z,-11.33
2023-02-23T01:11:13.470Z,-11.36
2023-02-23T01:13:42.033Z,-11.36
2023-02-23T01:16:11.261Z,-11.33
2023-02-23T01:18:39.269Z,-11.28
2023-02-23T01:21:06.613Z,-11.29
2023-02-23T01:23:33.519Z,-11.33
2023-02-23T01:26:00.569Z,-11.37
2023-02-23T01:28:28.018Z,-11.39
2023-02-23T01:30:55.074Z,-11.45
2023-02-23T01:33:22.062Z,-11.44
2023-02-23T01:35:59.565Z,-11.46
2023-02-23T01:38:26.679Z,-11.43
2023-02-23T01:40:53.546Z,-11.42
2023-02-23T01:43:27.653Z,-11.44
2023-02-23T01:45:55.684Z,-11.42
2023-02-23T01:48:27.403Z,-11.43
2023-02-23T01:51:03.752Z,-11.51
2023-02-23T01:53:34.256Z,-11.53
2023-02-23T01:56:24.501Z,-11.46
2023-02-23T01:58:53.217Z,-11.44
2023-02-23T02:01:21.905Z,-11.45
2023-02-23T02:03:51.688Z,-11.46
2023-02-23T02:06:18.735Z,-11.43
2023-02-23T02:08:47.557Z,-11.42
2023-02-23T02:11:31.113Z,-11.43
2023-02-23T02:14:03.724Z,-11.47
2023-02-23T02:16:52.990Z,-11.46
2023-02-23T02:20:06.405Z,-11.48
2023-02-23T02:23:13.741Z,-11.50
2023-02-23T02:25:54.744Z,-11.45
2023-02-23T02:28:36.386Z,-11.38
2023-02-23T02:31:15.733Z,-11.37
2023-02-23T02:34:22.596Z,-11.43
2023-02-23T02:37:20.621Z,-11.49
2023-02-23T02:40:40.325Z,-11.56
2023-02-23T02:43:17.722Z,-11.51
2023-02-23T02:45:59.986Z,-11.46
2023-02-23T02:48:42.397Z,-11.56
2023-02-23T02:51:24.772Z,-11.60
2023-02-23T02:54:07.374Z,-11.63
2023-02-23T02:56:40.396Z,-11.67
2023-02-23T02:59:29.956Z,-11.73
2023-02-23T03:02:15.815Z,-11.72
2023-02-23T03:05:01.304Z,-11.72
2023-02-23T03:08:00.586Z,-11.73
2023-02-23T03:10:52.204Z,-11.74
2023-02-23T03:13:45.117Z,-11.73
2023-02-23T03:16:55.434Z,-11.75
2023-02-23T03:19:45.277Z,-11.75
2023-02-23T03:22:40.714Z,-11.73
2023-02-23T03:25:37.505Z,-11.75
2023-02-23T03:28:30.299Z,-11.83
2023-02-23T03:31:20.637Z,-11.88
2023-02-23T03:34:22.383Z,-11.89
2023-02-23T03:37:12.054Z,-11.91
2023-02-23T03:40:01.123Z,-11.93
2023-02-23T03:42:48.933Z,-11.94
2023-02-23T03:45:36.578Z,-11.89
2023-02-23T03:48:22.535Z,-11.91
2023-02-23T03:51:11.929Z,-11.93
2023-02-23T03:54:01.576Z,-11.95
2023-02-23T03:56:47.305Z,-11.97
2023-02-23T03:59:34.256Z,-11.99
2023-02-23T04:02:19.994Z,-12.01
2023-02-23T04:05:05.414Z,-12.04
2023-02-23T04:07:51.010Z,-12.03
2023-02-23T04:10:37.636Z,-12.02
2023-02-23T04:13:15.738Z,-12.00
2023-02-23T04:16:07.209Z,-11.99
2023-02-23T04:18:35.323Z,-12.02
2023-02-23T04:21:03.088Z,-12.01
2023-02-23T04:23:31.108Z,-12.00
2023-02-23T04:25:58.318Z,-12.03
2023-02-23T04:28:27.133Z,-12.03
2023-02-23T04:30:54.136Z,-11.97
2023-02-23T04:33:22.262Z,-11.95
2023-02-23T04:35:49.762Z,-11.91
2023-02-23T04:38:17.067Z,-11.82
2023-02-23T04:40:43.954Z,-11.73
2023-02-23T04:43:14.772Z,-11.67
2023-02-23T04:45:42.366Z,-11.66
2023-02-23T04:48:09.388Z,-11.64
2023-02-23T04:50:36.467Z,-11.55
2023-02-23T04:53:03.608Z,-11.51
2023-02-23T04:55:32.988Z,-11.42
2023-02-23T04:58:01.091Z,-11.37
2023-02-23T05:00:29.573Z,-11.39
2023-02-23T05:02:57.685Z,-11.36
2023-02-23T05:05:25.732Z,-11.34
2023-02-23T05:07:53.867Z,-11.28
2023-02-23T05:10:20.872Z,-11.16
2023-02-23T05:12:47.987Z,-11.05
2023-02-23T05:15:15.084Z,-10.97
2023-02-23T05:17:42.144Z,-10.83
2023-02-23T05:20:10.829Z,-10.61
2023-02-23T05:22:40.524Z,-10.30
2023-02-23T05:25:08.839Z,-10.08
2023-02-23T05:27:36.998Z,-10.07
2023-02-23T05:30:05.660Z,-10.16
2023-02-23T05:32:33.102Z,-10.13
2023-02-23T05:35:00.520Z,-9.93
2023-02-23T05:37:27.419Z,-9.76
2023-02-23T05:39:54.510Z,-9.52
2023-02-23T05:42:21.490Z,-9.30
2023-02-23T05:44:48.634Z,-9.12
2023-02-23T05:47:15.528Z,-8.89
2023-02-23T05:49:42.872Z,-8.85
2023-02-23T05:52:09.849Z,-8.61
2023-02-23T05:54:38.939Z,-8.44
2023-02-23T05:57:05.987Z,-8.46
2023-02-23T05:59:32.915Z,-8.45
2023-02-23T06:02:00.090Z,-8.27
2023-02-23T06:04:27.111Z,-7.92
2023-02-23T06:06:54.368Z,-7.57
2023-02-23T06:09:27.237Z,-7.33
2023-02-23T06:11:55.857Z,-7.11
2023-02-23T06:14:22.908Z,-7.09
2023-02-23T06:16:50.083Z,-7.18
2023-02-23T06:19:17.430Z,-7.25
2023-02-23T06:21:45.118Z,-7.10
2023-02-23T06:24:12.412Z,-6.48
2023-02-23T06:26:39.601Z,-5.80
2023-02-23T06:29:07.595Z,-5.53
2023-02-23T06:31:34.772Z,-5.74
2023-02-23T06:34:03.549Z,-6.08
2023-02-23T06:36:31.412Z,-6.29
2023-02-23T06:38:58.744Z,-6.37
2023-02-23T06:41:25.987Z,-6.08
2023-02-23T06:43:52.982Z,-6.02
2023-02-23T06:46:21.009Z,-6.00
2023-02-23T06:48:48.255Z,-5.56
2023-02-23T06:51:15.167Z,-5.13
2023-02-23T06:53:42.480Z,-5.45
2023-02-23T06:56:10.594Z,-5.80
2023-02-23T06:58:40.496Z,-5.47
2023-02-23T07:01:10.197Z,-5.16
2023-02-23T07:03:37.199Z,-5.03
2023-02-23T07:06:06.288Z,-4.91
2023-02-23T07:08:34.910Z,-4.61
2023-02-23T07:11:09.029Z,-4.11
2023-02-23T07:13:38.009Z,-3.75
2023-02-23T07:16:06.692Z,-3.59
2023-02-23T07:18:34.002Z,-3.41
2023-02-23T07:21:02.605Z,-3.37
2023-02-23T07:23:29.832Z,-3.46
2023-02-23T07:25:58.237Z,-3.41
2023-02-23T07:28:27.859Z,-3.58
2023-02-23T07:30:58.699Z,-3.52
2023-02-23T07:33:26.231Z,-3.55
2023-02-23T07:35:53.553Z,-3.77
2023-02-23T07:38:20.917Z,-3.79
2023-02-23T07:40:50.466Z,-3.71
2023-02-23T07:43:22.900Z,-3.74
2023-02-23T07:45:51.941Z,-3.95
2023-02-23T07:48:19.433Z,-3.71
2023-02-23T07:50:47.504Z,-3.67
2023-02-23T07:53:15.563Z,-3.60
2023-02-23T07:55:42.783Z,-3.15
2023-02-23T07:58:13.834Z,-3.19
2023-02-23T08:00:41.639Z,-3.35
2023-02-23T08:03:08.928Z,-3.55
2023-02-23T08:05:37.757Z,-3.63
2023-02-23T08:08:05.241Z,-3.57
2023-02-23T08:10:38.526Z,-3.37
2023-02-23T08:13:06.987Z,-3.45
2023-02-23T08:15:39.637Z,-3.09
2023-02-23T08:18:09.988Z,-2.81
2023-02-23T08:20:39.127Z,-2.92
2023-02-23T08:23:06.898Z,-2.82
2023-02-23T08:25:35.068Z,-3.02
2023-02-23T08:28:07.281Z,-3.13
2023-02-23T08:30:35.934Z,-3.15
2023-02-23T08:33:03.204Z,-2.97
2023-02-23T08:35:31.672Z,-2.77
2023-02-23T08:37:59.069Z,-2.49
2023-02-23T08:40:26.724Z,-2.61
2023-02-23T08:42:56.585Z,-2.26
2023-02-23T08:45:23.965Z,-1.97
2023-02-23T08:47:51.261Z,-2.12
2023-02-23T08:50:18.536Z,-2.56
2023-02-23T08:52:45.655Z,-2.93
2023-02-23T08:55:16.586Z,-3.11
2023-02-23T08:57:43.817Z,-3.38
2023-02-23T09:00:16.790Z,-3.66
2023-02-23T09:02:45.194Z,-4.11
2023-02-23T09:05:12.340Z,-4.65
2023-02-23T09:07:40.142Z,-4.97
2023-02-23T09:10:08.620Z,-5.32
2023-02-23T09:12:41.536Z,-5.60
2023-02-23T09:15:09.195Z,-5.60
2023-02-23T09:17:36.507Z,-5.55
2023-02-23T09:20:05.109Z,-5.74
2023-02-23T09:22:36.766Z,-5.94
2023-02-23T09:25:05.014Z,-6.03
2023-02-23T09:27:33.078Z,-6.12
2023-02-23T09:30:00.121Z,-6.15
2023-02-23T09:32:27.522Z,-6.17
2023-02-23T09:34:54.601Z,-6.03
2023-02-23T09:37:21.697Z,-5.96
2023-02-23T09:39:49.499Z,-6.07
2023-02-23T09:42:23.803Z,-6.06
2023-02-23T09:45:27.193Z,-6.17
2023-02-23T09:48:12.634Z,-6.19
2023-02-23T09:50:40.614Z,-6.10
2023-02-23T09:53:12.888Z,-6.18
2023-02-23T09:55:41.621Z,-6.14
2023-02-23T09:58:18.394Z,-6.14
2023-02-23T10:00:46.488Z,-6.18
2023-02-23T10:03:33.551Z,-6.14
2023-02-23T10:06:06.679Z,-6.12
2023-02-23T10:08:45.283Z,-6.11
2023-02-23T10:11:21.195Z,-6.10
2023-02-23T10:13:56.353Z,-6.15
2023-02-23T10:16:30.111Z,-6.08
2023-02-23T10:19:34.167Z,-6.01
2023-02-23T10:22:06.546Z,-5.99
2023-02-23T10:24:35.486Z,-5.94
2023-02-23T10:27:16.985Z,-5.85
2023-02-23T10:29:53.074Z,-5.85
2023-02-23T10:32:38.747Z,-5.86
2023-02-23T10:35:13.080Z,-5.73
2023-02-23T10:37:40.390Z,-5.63
2023-02-23T10:40:08.352Z,-5.57
2023-02-23T10:42:35.397Z,-5.46
2023-02-23T10:45:02.403Z,-5.38
2023-02-23T10:47:31.990Z,-5.61
2023-02-23T10:50:02.583Z,-5.78
2023-02-23T10:52:41.320Z,-5.84
2023-02-23T10:57:25.562Z,-6.00
2023-02-23T11:00:00.171Z,-6.10
2023-02-23T11:02:27.771Z,-6.10
2023-02-23T11:04:57.514Z,-6.10
2023-02-23T11:07:29.563Z,-6.04
2023-02-23T11:10:01.290Z,-6.03
2023-02-23T11:12:38.371Z,-6.04
2023-02-23T11:15:49.453Z,-6.04
2023-02-23T11:18:22.903Z,-6.09
2023-02-23T11:20:50.227Z,-5.95
2023-02-23T11:23:32.194Z,-5.86
2023-02-23T11:26:01.409Z,-5.94
2023-02-23T11:28:33.578Z,-5.93
2023-02-23T11:31:04.730Z,-5.85
2023-02-23T11:33:36.247Z,-5.86
2023-02-23T11:36:27.022Z,-5.88
2023-02-23T11:39:03.963Z,-5.84
2023-02-23T11:41:35.617Z,-5.84
2023-02-23T11:44:06.181Z,-5.90
2023-02-23T11:46:36.830Z,-5.90
2023-02-23T11:49:08.811Z,-5.82
2023-02-23T11:51:37.717Z,-5.74
2023-02-23T11:54:05.704Z,-5.71
2023-02-23T11:56:33.835Z,-5.71
2023-02-23T23:14:20.468Z,-7.39
2023-02-23T23:16:48.650Z,-7.43
2023-02-23T23:19:18.205Z,-7.49
2023-02-23T23:21:46.178Z,-7.58
2023-02-23T23:24:16.092Z,-7.65
2023-02-23T23:26:44.533Z,-7.72
2023-02-23T23:29:13.588Z,-7.70
2023-02-23T23:31:45.386Z,-7.67
2023-02-23T23:34:13.064Z,-7.65
2023-02-23T23:36:49.441Z,-7.65
2023-02-23T23:39:17.493Z,-7.63
2023-02-23T23:41:48.180Z,-7.60
2023-02-23T23:44:17.197Z,-7.58
2023-02-23T23:46:45.320Z,-7.55
2023-02-23T23:49:18.367Z,-7.51
2023-02-23T23:51:51.136Z,-7.48
2023-02-23T23:54:20.315Z,-7.45
2023-02-23T23:56:47.681Z,-7.43
2023-02-23T23:59:16.937Z,-7.43
